Terminal Aerodrome Forecast
Issued by NWS Paducah, KY

Home | Current Version | Previous Version | Text Only | Print | Product List | Glossary On
Versions: 1 2 3 4 5 6 7 8 9 10 11 12 13 14 15 16 17 18 19 20 21 22 23 24 25 26
000
FTUS43 KPAH 051007 AAC
TAFPAH
TAF AMD
KPAH 051007Z 0510/0606 00000KT 1/4SM FG BKN001
      TEMPO 0510/0513 1SM BR SCT001
     FM051300 00000KT 2SM BR BKN009
     FM051500 00000KT 6SM BR SKC
     FM051700 VRB04KT P6SM SCT040=

USA.gov is the U.S. government's official web portal to all federal, state and local government web resources and services.